Terminal Aerodrome Forecast
Issued by NWS

Home | Current Version | Previous Version | Text Only | Print | Product List | Glossary On
Versions: 1 2 3 4 5 6 7 8 9 10 11 12 13 14 15 16 17 18 19 20 21 22 23 24 25 26
000
FTUS42 KJAX 282000 AAE
TAFVQQ
TAF AMD
KVQQ 282057Z 2821/2918 24011KT P6SM VCTS BKN035CB
      TEMPO 2821/2822 VRB15G25KT 3SM TSRA BKN030CB
     FM282300 24009KT P6SM VCSH BKN035
     FM290200 25008KT P6SM VCSH FEW015 BKN035 BKN250
     FM290700 27005KT 5SM BR VCSH SCT010 SCT250
     FM291300 29010KT P6SM VCSH SCT015 SCT080 SCT250=

USA.gov is the U.S. government's official web portal to all federal, state and local government web resources and services.